createdAt,value
2018-11-23T00:00:37.828Z,3.37
2018-11-23T00:03:08.162Z,3.40
2018-11-23T00:05:38.206Z,3.39
2018-11-23T00:08:08.523Z,3.35
2018-11-23T00:10:38.644Z,3.34
2018-11-23T00:13:28.326Z,3.31
2018-11-23T00:15:58.224Z,3.27
2018-11-23T00:18:28.403Z,3.25
2018-11-23T00:20:58.530Z,3.24
2018-11-23T00:23:28.397Z,3.22
2018-11-23T00:25:59.206Z,3.19
2018-11-23T00:28:29.384Z,3.16
2018-11-23T00:30:59.096Z,3.15
2018-11-23T00:33:30.814Z,3.18
2018-11-23T00:36:01.039Z,3.19
2018-11-23T00:41:20.210Z,3.13
2018-11-23T00:43:50.329Z,3.13
2018-11-23T00:49:16.433Z,3.11
2018-11-23T00:54:44.911Z,3.12
2018-11-23T00:57:33.844Z,3.10
2018-11-23T01:00:03.944Z,3.14
2018-11-23T01:03:12.960Z,3.12
2018-11-23T01:05:44.037Z,3.08
2018-11-23T01:08:14.007Z,3.08
2018-11-23T01:10:43.980Z,3.05
2018-11-23T01:13:13.939Z,3.06
2018-11-23T01:15:44.099Z,3.06
2018-11-23T01:18:14.085Z,3.00
2018-11-23T01:20:44.126Z,3.03
2018-11-23T01:23:14.117Z,3.01
2018-11-23T01:26:03.000Z,2.99
2018-11-23T01:28:32.965Z,2.96
2018-11-23T01:31:02.970Z,2.98
2018-11-23T01:33:32.988Z,2.95
2018-11-23T01:36:03.082Z,2.95
2018-11-23T01:38:33.055Z,2.94
2018-11-23T01:41:02.998Z,2.93
2018-11-23T01:43:51.447Z,2.94
2018-11-23T01:46:22.182Z,2.91
2018-11-23T01:49:12.807Z,2.93
2018-11-23T01:52:02.894Z,2.93
2018-11-23T01:54:32.935Z,2.94
2018-11-23T01:57:04.382Z,2.94
2018-11-23T01:59:34.659Z,2.94
2018-11-23T02:02:04.467Z,2.98
2018-11-23T02:04:35.029Z,2.97
2018-11-23T02:07:05.019Z,2.97
2018-11-23T02:09:35.052Z,2.98
2018-11-23T02:12:05.136Z,2.95
2018-11-23T02:14:35.246Z,2.95
2018-11-23T02:17:05.283Z,2.96
2018-11-23T02:19:35.347Z,2.91
2018-11-23T02:22:05.839Z,2.94
2018-11-23T02:24:39.534Z,2.90
2018-11-23T02:27:28.232Z,2.90
2018-11-23T02:29:58.656Z,2.91
2018-11-23T02:32:28.761Z,2.90
2018-11-23T02:34:59.074Z,2.90
2018-11-23T02:37:28.907Z,2.89
2018-11-23T02:39:59.777Z,2.90
2018-11-23T02:42:29.794Z,2.91
2018-11-23T02:44:59.848Z,2.88
2018-11-23T02:47:30.012Z,2.93
2018-11-23T02:50:00.383Z,2.91
2018-11-23T02:52:30.570Z,2.87
2018-11-23T02:55:25.201Z,2.88
2018-11-23T02:57:55.060Z,2.84
2018-11-23T03:00:25.344Z,2.87
2018-11-23T03:03:15.335Z,2.89
2018-11-23T03:05:45.827Z,2.83
2018-11-23T03:08:15.676Z,2.78
2018-11-23T03:10:45.559Z,2.75
2018-11-23T03:13:15.735Z,2.76
2018-11-23T03:15:45.770Z,2.70
2018-11-23T03:18:15.801Z,2.68
2018-11-23T03:20:57.659Z,2.67
2018-11-23T03:23:42.373Z,2.64
2018-11-23T03:26:12.270Z,2.64
2018-11-23T03:31:59.722Z,2.60
2018-11-23T03:34:29.940Z,2.64
2018-11-23T03:37:00.104Z,2.61
2018-11-23T03:39:36.630Z,2.64
2018-11-23T03:42:07.741Z,2.61
2018-11-23T03:44:37.791Z,2.58
2018-11-23T03:47:07.977Z,2.55
2018-11-23T03:49:38.232Z,2.53
2018-11-23T03:52:08.190Z,2.54
2018-11-23T03:55:00.663Z,2.54
2018-11-23T03:57:31.616Z,2.52
2018-11-23T04:00:01.785Z,2.53
2018-11-23T04:02:31.786Z,2.54
2018-11-23T04:08:53.435Z,2.53
2018-11-23T04:11:49.583Z,2.51
2018-11-23T04:14:38.350Z,2.53
2018-11-23T04:17:27.474Z,2.51
2018-11-23T04:19:57.763Z,2.53
2018-11-23T04:22:27.602Z,2.53
2018-11-23T04:24:57.622Z,2.52
2018-11-23T04:27:27.925Z,2.59
2018-11-23T04:29:57.968Z,2.62
2018-11-23T04:32:28.183Z,2.63
2018-11-23T04:34:58.316Z,2.66
2018-11-23T04:37:28.603Z,2.72
2018-11-23T04:39:58.703Z,2.71
2018-11-23T04:42:28.931Z,2.62
2018-11-23T04:44:59.650Z,2.57
2018-11-23T04:47:30.017Z,2.60
2018-11-23T04:49:59.937Z,2.58
2018-11-23T04:55:21.793Z,2.53
2018-11-23T04:57:53.713Z,2.53
2018-11-23T05:00:22.014Z,2.52
2018-11-23T05:02:51.957Z,2.56
2018-11-23T05:05:22.660Z,2.62
2018-11-23T05:07:52.996Z,2.68
2018-11-23T05:13:29.538Z,2.85
2018-11-23T05:16:10.536Z,2.91
2018-11-23T05:18:40.801Z,2.95
2018-11-23T05:21:30.149Z,2.97
2018-11-23T05:24:00.524Z,2.94
2018-11-23T05:26:33.070Z,3.00
2018-11-23T05:29:03.894Z,3.00
2018-11-23T05:31:34.026Z,3.01
2018-11-23T05:34:22.750Z,3.08
2018-11-23T05:36:53.051Z,3.08
2018-11-23T05:39:23.159Z,3.15
2018-11-23T05:41:53.280Z,3.13
2018-11-23T05:44:23.261Z,3.14
2018-11-23T05:47:04.567Z,3.15
2018-11-23T05:49:34.651Z,3.16
2018-11-23T05:54:54.713Z,3.18
2018-11-23T05:57:26.213Z,3.17
2018-11-23T05:59:59.087Z,3.18
2018-11-23T06:05:25.204Z,3.16
2018-11-23T06:07:55.528Z,3.15
2018-11-23T06:10:25.715Z,3.12
2018-11-23T06:12:55.928Z,3.08
2018-11-23T06:15:26.518Z,3.12
2018-11-23T06:18:15.801Z,3.01
2018-11-23T06:20:46.063Z,3.00
2018-11-23T06:23:16.363Z,2.97
2018-11-23T06:26:25.264Z,2.96
2018-11-23T06:28:55.303Z,2.92
2018-11-23T06:34:20.966Z,2.90
2018-11-23T06:36:51.530Z,2.94
2018-11-23T06:39:21.862Z,2.90
2018-11-23T06:45:08.125Z,2.87
2018-11-23T06:47:38.581Z,2.87
2018-11-23T06:50:12.109Z,2.87
2018-11-23T06:52:42.503Z,2.90
2018-11-23T06:55:13.075Z,2.90
2018-11-23T06:57:43.367Z,2.92
2018-11-23T07:00:32.348Z,2.93
2018-11-23T07:03:02.310Z,2.93
2018-11-23T07:05:32.662Z,2.92
2018-11-23T07:08:02.740Z,2.96
2018-11-23T07:10:34.606Z,2.97
2018-11-23T07:13:04.701Z,2.99
2018-11-23T07:15:34.579Z,2.97
2018-11-23T07:18:04.567Z,2.97
2018-11-23T07:20:36.287Z,2.99
2018-11-23T07:23:06.506Z,3.02
2018-11-23T07:25:38.706Z,3.03
2018-11-23T07:28:15.093Z,3.09
2018-11-23T07:30:39.552Z,3.10
2018-11-23T07:33:09.545Z,3.13
2018-11-23T07:35:39.472Z,3.13
2018-11-23T07:38:09.379Z,3.21
2018-11-23T07:41:17.102Z,3.21
2018-11-23T07:43:47.246Z,3.21
2018-11-23T07:46:17.343Z,3.22
2018-11-23T07:48:47.627Z,3.30
2018-11-23T07:51:17.727Z,3.35
2018-11-23T07:53:47.910Z,3.36
2018-11-23T07:56:18.089Z,3.37
2018-11-23T07:58:49.404Z,3.39
2018-11-23T08:01:19.938Z,3.40
2018-11-23T08:03:50.037Z,3.42
2018-11-23T08:06:38.910Z,3.46
2018-11-23T08:09:13.231Z,3.49
2018-11-23T08:11:43.811Z,3.51
2018-11-23T08:14:18.655Z,3.57
2018-11-23T08:16:49.321Z,3.57
2018-11-23T08:19:19.550Z,3.63
2018-11-23T08:24:38.984Z,3.68
2018-11-23T08:27:09.676Z,3.73
2018-11-23T08:29:39.596Z,3.79
2018-11-23T08:32:09.695Z,3.81
2018-11-23T08:34:39.875Z,3.85
2018-11-23T08:37:28.811Z,3.91
2018-11-23T08:40:20.922Z,3.98
2018-11-23T08:43:10.388Z,4.12
2018-11-23T08:45:59.236Z,4.17
2018-11-23T08:48:31.637Z,4.21
2018-11-23T08:51:01.690Z,4.34
2018-11-23T08:53:51.129Z,4.39
2018-11-23T08:56:21.501Z,4.54
2018-11-23T08:59:10.375Z,4.57
2018-11-23T09:01:40.918Z,4.60
2018-11-23T09:04:11.032Z,4.72
2018-11-23T09:06:43.711Z,4.76
2018-11-23T09:09:14.541Z,4.78
2018-11-23T09:11:44.968Z,4.80
2018-11-23T09:14:15.015Z,4.87
2018-11-23T09:16:45.076Z,4.93
2018-11-23T09:19:15.654Z,4.99
2018-11-23T09:21:45.527Z,5.05
2018-11-23T09:24:15.572Z,5.15
2018-11-23T09:29:35.095Z,5.28
2018-11-23T09:32:05.461Z,5.30
2018-11-23T09:34:54.066Z,5.38
2018-11-23T09:37:24.169Z,5.36
2018-11-23T09:40:12.907Z,5.44
2018-11-23T09:42:43.225Z,5.56
2018-11-23T09:45:15.725Z,5.68
2018-11-23T09:47:46.597Z,5.72
2018-11-23T09:50:20.689Z,5.76
2018-11-23T09:52:52.197Z,5.83
2018-11-23T09:55:27.699Z,5.92
2018-11-23T09:57:57.807Z,6.02
2018-11-23T10:00:47.310Z,6.06
2018-11-23T10:03:17.970Z,6.22
2018-11-23T10:06:06.779Z,6.33
2018-11-23T10:08:37.521Z,6.47
2018-11-23T10:11:06.805Z,6.62
2018-11-23T10:13:36.748Z,6.79
2018-11-23T10:16:08.830Z,6.93
2018-11-23T10:18:38.822Z,7.13
2018-11-23T10:21:09.263Z,7.25
2018-11-23T10:23:39.587Z,7.35
2018-11-23T10:26:09.438Z,7.40
2018-11-23T10:28:39.718Z,7.46
2018-11-23T10:31:09.574Z,7.51
2018-11-23T10:36:37.833Z,7.60
2018-11-23T10:39:08.768Z,7.66
2018-11-23T10:41:38.629Z,7.74
2018-11-23T10:44:08.696Z,7.80
2018-11-23T10:49:08.923Z,8.02
2018-11-23T10:51:38.962Z,8.17
2018-11-23T10:54:09.319Z,8.32
2018-11-23T10:56:39.072Z,8.41
2018-11-23T10:59:09.028Z,8.54
2018-11-23T11:01:57.593Z,8.64
2018-11-23T11:04:48.591Z,8.77
2018-11-23T11:07:18.695Z,8.98
2018-11-23T11:09:48.689Z,9.16
2018-11-23T11:12:18.827Z,9.32
2018-11-23T11:17:32.438Z,9.68
2018-11-23T11:20:02.628Z,9.78
2018-11-23T11:22:51.416Z,9.83
2018-11-23T11:25:21.406Z,9.92
2018-11-23T11:27:51.351Z,10.05
2018-11-23T11:30:21.628Z,10.15
2018-11-23T11:32:51.769Z,10.20
2018-11-23T11:35:21.771Z,10.29
2018-11-23T11:37:52.167Z,10.28
2018-11-23T11:40:22.461Z,10.22
2018-11-23T11:42:52.351Z,10.25
2018-11-23T11:48:27.062Z,10.29
2018-11-23T11:50:57.286Z,10.26
2018-11-23T11:53:45.844Z,10.29
2018-11-23T11:56:16.168Z,10.33
2018-11-23T11:58:46.188Z,10.34
2018-11-23T12:01:16.362Z,10.56
2018-11-23T12:04:05.602Z,11.38
2018-11-23T12:06:36.557Z,12.56
2018-11-23T12:09:10.206Z,14.01
2018-11-23T12:11:40.081Z,14.52
2018-11-23T12:14:10.057Z,15.44
2018-11-23T12:16:40.545Z,16.35
2018-11-23T12:19:10.565Z,15.77
2018-11-23T12:21:40.923Z,16.17
2018-11-23T12:24:10.912Z,16.12
2018-11-23T12:26:40.817Z,16.82
2018-11-23T12:29:10.843Z,16.57
2018-11-23T12:31:40.933Z,16.02
2018-11-23T12:34:10.915Z,15.86
2018-11-23T12:36:40.918Z,15.50
2018-11-23T12:39:10.734Z,15.67
2018-11-23T12:41:40.688Z,15.81
2018-11-23T12:44:10.696Z,16.01
2018-11-23T12:46:40.788Z,16.14
2018-11-23T12:49:10.725Z,16.08
2018-11-23T12:51:42.698Z,16.31
2018-11-23T12:54:23.658Z,16.38
2018-11-23T12:56:53.505Z,16.42
2018-11-23T12:59:23.402Z,16.82
2018-11-23T13:01:53.373Z,16.62
2018-11-23T13:04:23.337Z,16.98
2018-11-23T13:06:53.522Z,17.23
2018-11-23T13:09:23.611Z,17.31
2018-11-23T13:11:53.492Z,17.03
2018-11-23T13:14:23.387Z,16.91
2018-11-23T13:16:53.427Z,16.52
2018-11-23T13:19:23.208Z,15.93
2018-11-23T13:21:53.135Z,15.08
2018-11-23T13:27:52.343Z,13.67
2018-11-23T13:30:41.009Z,13.01
2018-11-23T13:33:11.015Z,12.62
2018-11-23T13:35:59.944Z,12.31
2018-11-23T13:38:32.113Z,12.07
2018-11-23T13:41:02.329Z,11.87
2018-11-23T13:43:32.548Z,11.77
2018-11-23T13:46:02.712Z,11.64
2018-11-23T13:48:32.770Z,11.54
2018-11-23T13:51:02.742Z,11.49
2018-11-23T13:53:32.741Z,11.42
2018-11-23T13:56:02.773Z,11.35
2018-11-23T13:58:32.950Z,11.26
2018-11-23T14:04:06.801Z,11.16
2018-11-23T14:06:36.747Z,11.09
2018-11-23T14:09:10.771Z,11.07
2018-11-23T14:11:41.745Z,11.04
2018-11-23T14:14:12.474Z,11.03
2018-11-23T14:16:42.513Z,11.00
2018-11-23T14:19:12.400Z,10.96
2018-11-23T14:21:42.415Z,10.94
2018-11-23T14:24:12.445Z,10.90
2018-11-23T14:26:42.372Z,10.85
2018-11-23T14:29:23.693Z,10.82
2018-11-23T14:31:53.933Z,10.81
2018-11-23T14:34:24.079Z,10.76
2018-11-23T14:36:54.224Z,10.71
2018-11-23T14:39:24.530Z,10.67
2018-11-23T14:41:54.641Z,10.60
2018-11-23T14:44:24.588Z,10.56
2018-11-23T14:46:55.721Z,10.57
2018-11-23T14:49:25.832Z,10.54
2018-11-23T14:51:55.803Z,10.51
2018-11-23T14:54:42.679Z,10.47
2018-11-23T14:57:19.070Z,10.43
2018-11-23T14:59:49.827Z,10.38
2018-11-23T15:02:40.911Z,10.43
2018-11-23T15:05:10.994Z,10.40
2018-11-23T15:07:41.153Z,10.33
2018-11-23T15:10:13.834Z,10.28
2018-11-23T15:12:44.515Z,10.26
2018-11-23T15:18:42.155Z,10.22
2018-11-23T15:21:31.172Z,10.12
2018-11-23T15:24:20.960Z,10.10
2018-11-23T15:26:51.250Z,10.04
2018-11-23T15:29:41.943Z,9.99
2018-11-23T15:32:11.966Z,9.95
2018-11-23T15:34:42.079Z,9.91
2018-11-23T15:40:01.607Z,9.78
2018-11-23T15:42:51.853Z,9.73
2018-11-23T15:45:23.622Z,9.70
2018-11-23T15:47:54.031Z,9.63
2018-11-23T15:50:28.365Z,9.58
2018-11-23T15:52:58.492Z,9.56
2018-11-23T15:55:30.030Z,9.58
2018-11-23T15:58:01.792Z,9.61
2018-11-23T16:00:50.461Z,9.61
2018-11-23T16:03:39.287Z,9.60
2018-11-23T16:06:11.294Z,9.55
2018-11-23T16:08:41.746Z,9.47
2018-11-23T16:11:11.813Z,9.42
2018-11-23T16:13:42.053Z,9.37
2018-11-23T16:16:12.080Z,9.35
2018-11-23T16:18:42.465Z,9.30
2018-11-23T16:21:12.748Z,9.24
2018-11-23T16:23:42.898Z,9.21
2018-11-23T16:26:15.481Z,9.17
2018-11-23T16:28:45.326Z,9.14
2018-11-23T16:31:15.321Z,9.11
2018-11-23T16:33:45.327Z,9.07
2018-11-23T16:36:15.471Z,9.04
2018-11-23T16:38:45.458Z,9.02
2018-11-23T16:41:15.313Z,9.04
2018-11-23T16:43:45.360Z,9.02
2018-11-23T16:46:15.300Z,8.98
2018-11-23T16:48:45.820Z,8.93
2018-11-23T16:51:15.651Z,8.90
2018-11-23T16:53:47.637Z,8.85
2018-11-23T16:57:04.203Z,8.79
2018-11-23T16:59:33.092Z,8.75
2018-11-23T17:02:02.230Z,8.73
2018-11-23T17:04:31.022Z,8.71
2018-11-23T17:06:59.974Z,8.68
2018-11-23T17:09:29.153Z,8.64
2018-11-23T17:11:57.860Z,8.62
2018-11-23T17:14:26.817Z,8.59
2018-11-23T17:16:55.773Z,8.56
2018-11-23T17:19:24.674Z,8.56
2018-11-23T17:21:53.967Z,8.53
2018-11-23T17:24:23.038Z,8.54
2018-11-23T17:26:52.102Z,8.49
2018-11-23T17:29:23.149Z,8.48
2018-11-23T17:31:50.861Z,8.47
2018-11-23T17:34:20.011Z,8.44
2018-11-23T17:36:49.098Z,8.40
2018-11-23T17:39:19.116Z,8.42
2018-11-23T17:41:48.606Z,8.42
2018-11-23T17:44:17.337Z,8.40
2018-11-23T17:46:46.385Z,8.38
2018-11-23T17:49:15.191Z,8.36
2018-11-23T17:51:44.185Z,8.35
2018-11-23T17:54:13.056Z,8.36
2018-11-23T17:56:41.962Z,8.33
2018-11-23T17:59:10.981Z,8.28
2018-11-23T18:01:39.937Z,8.24
2018-11-23T18:04:09.401Z,8.25
2018-11-23T18:06:38.138Z,8.23
2018-11-23T18:09:08.573Z,8.19
2018-11-23T18:11:37.700Z,8.26
2018-11-23T18:14:07.109Z,8.28
2018-11-23T18:16:35.903Z,8.29
2018-11-23T18:19:05.045Z,8.27
2018-11-23T18:21:33.962Z,8.28
2018-11-23T18:24:02.780Z,8.27
2018-11-23T18:26:31.636Z,8.24
2018-11-23T18:29:00.795Z,8.23
2018-11-23T18:31:29.728Z,8.24
2018-11-23T18:33:59.110Z,8.22
2018-11-23T18:36:28.159Z,8.19
2018-11-23T18:38:57.051Z,8.16
2018-11-23T18:41:25.944Z,8.15
2018-11-23T18:43:54.785Z,8.12
2018-11-23T18:46:23.545Z,8.09
2018-11-23T18:48:52.565Z,8.05
2018-11-23T18:51:21.425Z,8.02
2018-11-23T18:53:50.444Z,7.97
2018-11-23T18:56:19.448Z,7.93
2018-11-23T18:58:48.861Z,7.88
2018-11-23T19:01:17.662Z,7.84
2018-11-23T19:03:46.744Z,7.84
2018-11-23T19:06:15.622Z,7.82
2018-11-23T19:08:44.660Z,7.80
2018-11-23T19:11:13.368Z,7.77
2018-11-23T19:13:42.213Z,7.73
2018-11-23T19:16:11.934Z,7.68
2018-11-23T19:18:49.827Z,7.68
2018-11-23T19:21:18.746Z,7.65
2018-11-23T19:23:47.552Z,7.63
2018-11-23T19:26:16.276Z,7.60
2018-11-23T19:28:45.055Z,7.58
2018-11-23T19:31:14.687Z,7.58
2018-11-23T19:33:43.386Z,7.58
2018-11-23T19:36:13.188Z,7.54
2018-11-23T19:38:42.057Z,7.54
2018-11-23T19:41:10.962Z,7.56
2018-11-23T19:43:39.814Z,7.56
2018-11-23T19:46:08.739Z,7.56
2018-11-23T19:48:37.851Z,7.56
2018-11-23T19:51:07.016Z,7.53
2018-11-23T19:53:35.947Z,7.50
2018-11-23T19:56:05.338Z,7.48
2018-11-23T19:58:34.965Z,7.48
2018-11-23T20:01:03.847Z,7.44
2018-11-23T20:03:33.303Z,7.40
2018-11-23T20:06:02.818Z,7.33
2018-11-23T20:08:31.784Z,7.29
2018-11-23T20:11:01.351Z,7.25
2018-11-23T20:13:30.288Z,7.25
2018-11-23T20:15:59.372Z,7.23
2018-11-23T20:18:28.470Z,7.19
2018-11-23T20:20:58.664Z,7.21
2018-11-23T20:23:27.834Z,7.18
2018-11-23T20:25:57.048Z,7.17
2018-11-23T20:28:26.194Z,7.16
2018-11-23T20:30:55.201Z,7.12
2018-11-23T20:33:24.137Z,7.07
2018-11-23T20:35:53.052Z,7.11
2018-11-23T20:38:21.923Z,7.07
2018-11-23T20:40:51.863Z,7.04
2018-11-23T20:43:20.858Z,6.99
2018-11-23T20:45:49.900Z,6.92
2018-11-23T20:48:18.992Z,6.87
2018-11-23T20:50:49.552Z,6.83
2018-11-23T20:53:18.509Z,6.79
2018-11-23T20:55:47.686Z,6.75
2018-11-23T20:58:16.485Z,6.72
2018-11-23T21:00:46.237Z,6.69
2018-11-23T21:03:15.445Z,6.67
2018-11-23T21:05:44.409Z,6.63
2018-11-23T21:08:15.787Z,6.60
2018-11-23T21:10:45.684Z,6.57
2018-11-23T21:13:14.957Z,6.58
2018-11-23T21:15:43.793Z,6.52
2018-11-23T21:18:12.941Z,6.52
2018-11-23T21:20:50.655Z,6.51
2018-11-23T21:23:19.624Z,6.50
2018-11-23T21:25:49.720Z,6.49
2018-11-23T21:28:18.622Z,6.48
2018-11-23T21:30:48.533Z,6.49
2018-11-23T21:33:17.474Z,6.48
2018-11-23T21:35:46.717Z,6.45
2018-11-23T21:38:22.289Z,6.44
2018-11-23T21:40:51.819Z,6.44
2018-11-23T21:43:20.924Z,6.40
2018-11-23T21:45:49.769Z,6.42
2018-11-23T21:48:18.603Z,6.36
2018-11-23T21:50:47.550Z,6.32
2018-11-23T21:53:16.530Z,6.30
2018-11-23T21:55:45.372Z,6.27
2018-11-23T21:58:14.337Z,6.20
2018-11-23T22:00:43.285Z,6.16
2018-11-23T22:03:12.183Z,6.11
2018-11-23T22:05:41.133Z,6.09
2018-11-23T22:08:09.880Z,6.05
2018-11-23T22:10:38.994Z,6.02
2018-11-23T22:13:07.971Z,6.00
2018-11-23T22:15:37.457Z,5.97
2018-11-23T22:18:06.478Z,5.95
2018-11-23T22:20:35.545Z,5.94
2018-11-23T22:23:04.491Z,5.93
2018-11-23T22:25:33.245Z,5.90
2018-11-23T22:28:02.726Z,5.89
2018-11-23T22:30:31.957Z,5.87
2018-11-23T22:33:00.691Z,5.87
2018-11-23T22:35:30.574Z,5.87
2018-11-23T22:37:59.298Z,5.87
2018-11-23T22:40:29.417Z,5.85
2018-11-23T22:42:58.890Z,5.85
2018-11-23T22:45:27.925Z,5.85
2018-11-23T22:47:57.213Z,5.84
2018-11-23T22:50:26.078Z,5.85
2018-11-23T22:52:54.907Z,5.83
2018-11-23T22:55:23.942Z,5.83
2018-11-23T22:57:52.772Z,5.82
2018-11-23T23:00:31.806Z,5.82
2018-11-23T23:03:00.828Z,5.81
2018-11-23T23:05:29.980Z,5.81
2018-11-23T23:07:58.909Z,5.80
2018-11-23T23:10:29.625Z,5.78
2018-11-23T23:12:58.384Z,5.74
2018-11-23T23:15:27.157Z,5.76
2018-11-23T23:17:56.080Z,5.75
2018-11-23T23:20:24.961Z,5.75
2018-11-23T23:22:53.816Z,5.75
2018-11-23T23:25:22.791Z,5.72
2018-11-23T23:27:51.925Z,5.70
2018-11-23T23:30:20.980Z,5.69
2018-11-23T23:32:50.129Z,5.67
2018-11-23T23:35:19.221Z,5.66
2018-11-23T23:37:48.001Z,5.65
2018-11-23T23:40:17.756Z,5.65
2018-11-23T23:42:47.014Z,5.67
2018-11-23T23:45:17.679Z,5.66
2018-11-23T23:47:46.539Z,5.63
2018-11-23T23:50:18.242Z,5.62
2018-11-23T23:52:47.258Z,5.62
2018-11-23T23:55:16.230Z,5.62
2018-11-23T23:57:45.938Z,5.60
